Terminal Aerodrome Forecast
Issued by NWS Detroit/Pontiac, MI

Current Version | Previous Version | Text Only | Print | Product List | Glossary On
Versions: 1 2 3 4 5 6 7 8 9 10 11 12 13 14
000
FTUS43 KDTX 281739
TAFFNT
TAF
KFNT 281739Z 2818/2918 09010KT 6SM -SHRA BKN050 OVC080
     FM282100 06007KT 4SM SHRA SCT035 OVC045
     FM282300 06007KT 6SM -SHRA OVC060
     FM290200 06007KT 6SM -SHRA OVC035
     FM290900 06010KT 3SM -SHRA BR OVC012
     FM291400 06013KT P6SM -SHRA OVC012=

USA.gov is the U.S. government's official web portal to all federal, state and local government web resources and services.